Time;durP1;ratioP1;P1;durP2;ratioP2;P2;SDS_P1;SDS_P2;PMS_P1;PMS_P2;Temp;Humidity;BMP_temperature;BMP_pressure;BME280_temperature;BME280_humidity;BME280_pressure;Samples;Min_cycle;Max_cycle;Signal;HPM_P1;HPM_P2
2022/10/07 00:00:14;;;;;;;5.07;1.87;;;;;;;20.38;63.10;101493.66;5070856;28;20168;-69
2022/10/07 00:02:39;;;;;;;5.27;1.80;;;;;;;20.40;62.82;101497.84;5070668;28;20167;-69
2022/10/07 00:05:05;;;;;;;3.10;1.43;;;;;;;20.35;62.94;101489.47;5070707;28;20183;-69
2022/10/07 00:07:31;;;;;;;3.93;1.63;;;;;;;20.38;62.97;101494.50;5036134;28;20232;-69
2022/10/07 00:09:56;;;;;;;6.23;2.10;;;;;;;20.35;62.85;101486.63;5070581;28;20171;-68
2022/10/07 00:12:22;;;;;;;5.90;1.90;;;;;;;20.36;63.28;101494.00;5070327;28;20183;-68
2022/10/07 00:14:48;;;;;;;3.23;1.63;;;;;;;20.37;63.56;101489.13;5070518;28;20183;-68
2022/10/07 00:17:13;;;;;;;7.57;1.60;;;;;;;20.36;62.88;101491.16;5069885;28;20175;-67
2022/10/07 00:19:40;;;;;;;5.00;1.73;;;;;;;20.35;63.05;101492.34;5070806;28;20417;-68
2022/10/07 00:22:06;;;;;;;4.43;1.80;;;;;;;20.37;63.04;101481.34;5070446;28;20634;-68
2022/10/07 00:24:31;;;;;;;6.77;1.50;;;;;;;20.37;63.16;101480.53;5070057;28;20414;-69
2022/10/07 00:26:57;;;;;;;4.30;1.57;;;;;;;20.34;63.27;101467.75;5069985;28;20194;-68
2022/10/07 00:29:22;;;;;;;4.80;2.27;;;;;;;20.35;63.12;101478.00;5069933;28;20803;-68
2022/10/07 00:31:48;;;;;;;4.20;1.83;;;;;;;20.34;63.29;101478.38;5070064;28;20718;-68
2022/10/07 00:34:13;;;;;;;3.40;1.70;;;;;;;20.35;63.18;101478.00;5069255;28;20195;-69
2022/10/07 00:36:39;;;;;;;4.53;1.60;;;;;;;20.34;63.33;101464.88;5069690;28;20462;-69
2022/10/07 00:39:09;;;;;;;6.13;1.90;;;;;;;20.34;63.10;101466.91;5051393;28;20171;-68
2022/10/07 00:41:49;;;;;;;4.30;1.50;;;;;;;20.33;63.33;101466.09;5051249;28;20530;-68
2022/10/07 00:44:40;;;;;;;4.00;1.60;;;;;;;20.32;63.43;101455.78;5052928;28;20903;-69
2022/10/07 00:47:26;;;;;;;4.10;1.93;;;;;;;20.33;63.15;101454.63;5070136;28;20904;-69
2022/10/07 00:50:13;;;;;;;3.77;1.90;;;;;;;20.34;63.72;101447.66;5073550;28;20517;-69
2022/10/07 00:52:46;;;;;;;2.90;1.23;;;;;;;20.34;63.41;101441.09;5073713;28;20453;-68
2022/10/07 00:55:15;;;;;;;3.60;1.70;;;;;;;20.33;63.35;101446.00;5056137;28;20422;-68
2022/10/07 00:57:45;;;;;;;6.07;2.00;;;;;;;20.34;63.51;101441.09;5073660;28;20453;-68
2022/10/07 01:00:36;;;;;;;6.83;1.93;;;;;;;20.31;63.58;101434.03;5073548;28;20421;-65
2022/10/07 01:03:01;;;;;;;3.20;1.37;;;;;;;20.33;63.53;101433.69;5077880;28;20426;-64
2022/10/07 01:05:27;;;;;;;4.13;1.50;;;;;;;20.35;63.62;101429.25;5055728;28;20476;-64
2022/10/07 01:07:52;;;;;;;3.40;1.50;;;;;;;20.32;63.63;101432.84;5073269;28;20510;-64
2022/10/07 01:10:18;;;;;;;4.77;1.80;;;;;;;20.31;63.34;101416.84;5055880;28;20194;-64
2022/10/07 01:13:04;;;;;;;3.90;1.33;;;;;;;20.33;63.25;101413.59;5055588;28;20163;-65
2022/10/07 01:15:30;;;;;;;4.30;1.70;;;;;;;20.34;63.43;101415.28;5040469;28;20410;-64
2022/10/07 01:17:58;;;;;;;3.93;1.80;;;;;;;20.33;63.43;101405.00;5073478;28;20398;-64
2022/10/07 01:20:34;;;;;;;4.40;1.77;;;;;;;20.33;63.69;101416.47;5073372;28;20190;-64
2022/10/07 01:23:37;;;;;;;3.30;1.57;;;;;;;20.32;63.87;101400.47;5039244;28;20393;-64
2022/10/07 01:26:31;;;;;;;2.97;1.40;;;;;;;20.31;63.51;101391.03;5070397;28;20831;-64
2022/10/07 01:29:13;;;;;;;4.07;1.73;;;;;;;20.31;63.45;101391.03;5071927;28;20455;-64
2022/10/07 01:31:53;;;;;;;3.83;1.50;;;;;;;20.29;63.56;101387.69;5039339;28;20445;-64
2022/10/07 01:34:19;;;;;;;4.03;1.60;;;;;;;20.28;63.71;101386.03;5039476;28;20433;-64
2022/10/07 01:36:49;;;;;;;2.73;1.47;;;;;;;20.30;63.51;101379.91;5038175;28;20423;-64
2022/10/07 01:39:15;;;;;;;2.80;1.33;;;;;;;20.30;63.58;101380.75;5039144;28;20254;-64
2022/10/07 01:41:40;;;;;;;4.33;1.63;;;;;;;20.29;63.58;101379.09;5071588;28;20410;-63
2022/10/07 01:44:07;;;;;;;2.57;1.30;;;;;;;20.31;63.67;101373.81;5072344;28;20169;-64
2022/10/07 01:46:36;;;;;;;3.23;1.33;;;;;;;20.28;63.71;101368.84;5055198;28;20194;-64
2022/10/07 01:49:02;;;;;;;4.03;1.80;;;;;;;20.29;63.50;101363.91;5072952;28;20441;-64
2022/10/07 01:51:28;;;;;;;3.17;1.43;;;;;;;20.29;63.63;101370.50;5072959;28;20477;-64
2022/10/07 01:54:07;;;;;;;2.30;1.03;;;;;;;20.30;63.86;101359.84;5072535;28;20468;-64
2022/10/07 01:56:41;;;;;;;2.60;1.27;;;;;;;20.29;63.64;101372.53;5072594;28;20398;-64
2022/10/07 01:59:25;;;;;;;2.90;1.43;;;;;;;20.29;63.63;101364.75;5053525;28;20467;-64
2022/10/07 02:02:05;;;;;;;4.70;2.10;;;;;;;20.29;63.85;101358.19;5072478;28;20404;-64
2022/10/07 02:04:33;;;;;;;2.40;1.40;;;;;;;20.28;63.90;101362.25;5077489;28;20421;-64
2022/10/07 02:07:17;;;;;;;2.40;1.10;;;;;;;20.27;63.74;101352.00;5072342;28;20409;-64
2022/10/07 02:09:50;;;;;;;3.00;1.43;;;;;;;20.26;63.82;101354.00;5072343;28;20455;-64
2022/10/07 02:12:39;;;;;;;2.20;1.10;;;;;;;20.27;63.96;101347.06;5072367;28;20476;-64
2022/10/07 02:15:09;;;;;;;3.53;1.17;;;;;;;20.24;63.93;101353.56;5054043;28;20830;-64
2022/10/07 02:17:36;;;;;;;2.93;1.50;;;;;;;20.27;63.62;101347.06;5064469;28;20496;-64
2022/10/07 02:20:02;;;;;;;3.60;1.47;;;;;;;20.28;63.79;101345.03;5087882;28;20409;-64
2022/10/07 02:22:27;;;;;;;3.30;1.60;;;;;;;20.26;64.25;101348.28;5054403;28;20417;-64
2022/10/07 02:24:54;;;;;;;3.53;1.40;;;;;;;20.26;64.06;101342.53;5054153;28;20513;-64
2022/10/07 02:27:22;;;;;;;3.80;1.47;;;;;;;20.30;63.47;101337.75;5087565;28;20181;-64
2022/10/07 02:29:48;;;;;;;3.20;1.40;;;;;;;20.27;64.04;101332.72;5070425;28;20441;-64
2022/10/07 02:32:16;;;;;;;3.20;1.43;;;;;;;20.24;64.05;101344.94;5053865;28;20416;-63
2022/10/07 02:34:42;;;;;;;3.70;1.40;;;;;;;20.25;63.83;101331.44;5053935;28;20182;-64
2022/10/07 02:37:13;;;;;;;3.77;1.83;;;;;;;20.25;63.70;101332.28;5037733;28;20432;-64
2022/10/07 02:39:39;;;;;;;2.17;1.20;;;;;;;20.26;63.69;101330.25;5037520;28;20708;-64
2022/10/07 02:42:14;;;;;;;2.93;1.53;;;;;;;20.25;63.99;101329.41;5054014;28;20508;-64
2022/10/07 02:44:49;;;;;;;3.93;1.67;;;;;;;20.26;63.77;101330.25;5071492;28;20186;-64
2022/10/07 02:47:51;;;;;;;2.77;1.40;;;;;;;20.25;63.67;101328.56;5071578;28;20417;-64
2022/10/07 02:50:20;;;;;;;2.57;1.20;;;;;;;20.27;64.17;101326.19;4987185;28;20941;-64
2022/10/07 02:52:46;;;;;;;2.53;1.20;;;;;;;20.24;63.84;101322.00;5037380;28;20457;-64
2022/10/07 02:55:14;;;;;;;3.50;1.50;;;;;;;20.24;64.02;101321.16;5071551;28;20424;-64
2022/10/07 02:57:42;;;;;;;2.70;1.43;;;;;;;20.26;63.81;101324.53;5037529;28;20175;-64
2022/10/07 03:00:08;;;;;;;2.20;1.10;;;;;;;20.25;63.98;101311.34;5037122;28;20421;-65
2022/10/07 03:03:03;;;;;;;5.93;1.30;;;;;;;20.24;63.96;101310.53;5053390;28;20770;-64
2022/10/07 03:05:29;;;;;;;2.10;1.27;;;;;;;20.24;64.20;101310.53;5050389;28;20198;-64
2022/10/07 03:07:56;;;;;;;2.73;1.00;;;;;;;20.23;63.78;101300.28;5053128;28;20500;-64
2022/10/07 03:10:22;;;;;;;2.63;1.27;;;;;;;20.23;63.77;101306.03;5086409;28;20345;-64
2022/10/07 03:12:49;;;;;;;2.47;1.20;;;;;;;20.24;63.85;101306.81;5071280;28;20488;-64
2022/10/07 03:15:14;;;;;;;2.33;0.90;;;;;;;20.23;64.06;101305.16;5071244;28;20160;-65
2022/10/07 03:17:40;;;;;;;2.70;1.37;;;;;;;20.24;63.77;101299.06;5053182;28;20394;-64
2022/10/07 03:20:08;;;;;;;2.80;1.40;;;;;;;20.25;64.13;101303.59;5071059;28;20175;-64
2022/10/07 03:22:34;;;;;;;2.83;1.30;;;;;;;20.25;64.06;101306.47;5071031;28;20179;-64
2022/10/07 03:24:59;;;;;;;2.70;1.50;;;;;;;20.25;63.93;101295.00;5052994;28;20393;-64
2022/10/07 03:27:26;;;;;;;2.27;1.20;;;;;;;20.24;63.94;101295.34;5070926;28;20159;-65
2022/10/07 03:29:53;;;;;;;3.73;1.53;;;;;;;20.24;64.14;101292.50;5071002;28;20216;-64
2022/10/07 03:32:18;;;;;;;4.60;1.27;;;;;;;20.22;63.98;101292.84;5071274;28;20493;-64
2022/10/07 03:34:44;;;;;;;2.63;1.30;;;;;;;20.24;63.95;101287.59;5070840;28;20471;-64
2022/10/07 03:37:09;;;;;;;3.17;1.40;;;;;;;20.23;64.13;101285.09;5069888;28;20170;-64
2022/10/07 03:39:34;;;;;;;2.40;1.07;;;;;;;20.23;63.94;101285.09;5071080;28;20953;-64
2022/10/07 03:42:00;;;;;;;3.13;1.20;;;;;;;20.23;63.95;101285.94;5070732;28;20179;-64
2022/10/07 03:44:25;;;;;;;3.53;1.13;;;;;;;20.23;64.51;101285.94;5069994;28;20171;-65
2022/10/07 03:46:51;;;;;;;3.50;1.27;;;;;;;20.23;64.09;101283.06;5071006;28;20186;-65
2022/10/07 03:49:16;;;;;;;1.70;0.93;;;;;;;20.23;63.93;101282.22;5071010;28;20214;-64
2022/10/07 03:51:42;;;;;;;2.40;1.23;;;;;;;20.23;64.24;101285.94;5070856;28;20214;-64
2022/10/07 03:54:08;;;;;;;2.60;1.17;;;;;;;20.22;63.95;101290.00;5070675;28;20229;-64
2022/10/07 03:56:33;;;;;;;3.80;1.33;;;;;;;20.22;64.18;101281.38;5070579;28;20848;-64
2022/10/07 03:58:59;;;;;;;5.13;2.00;;;;;;;20.24;64.02;101284.72;5070893;28;20266;-64
2022/10/07 04:01:24;;;;;;;2.30;1.40;;;;;;;20.22;64.24;101287.13;5036261;28;20160;-64
2022/10/07 04:03:50;;;;;;;3.00;1.30;;;;;;;20.22;63.89;101287.13;5070591;28;20653;-64
2022/10/07 04:06:15;;;;;;;2.50;1.30;;;;;;;20.24;64.04;101284.72;5052474;28;20193;-64
2022/10/07 04:08:43;;;;;;;2.40;1.30;;;;;;;20.23;64.07;101279.38;5070627;28;20192;-64
2022/10/07 04:11:09;;;;;;;3.23;1.27;;;;;;;20.23;64.01;101273.63;5069022;28;20775;-64
2022/10/07 04:13:34;;;;;;;2.20;1.10;;;;;;;20.23;64.12;101282.22;5032742;28;20430;-63
2022/10/07 04:16:07;;;;;;;2.30;1.23;;;;;;;20.22;64.03;101277.69;5050430;28;20179;-64
2022/10/07 04:18:33;;;;;;;1.87;1.03;;;;;;;20.21;64.09;101274.00;5053194;28;20514;-64
2022/10/07 04:20:59;;;;;;;3.23;1.43;;;;;;;20.24;63.95;101275.28;5070453;28;20436;-65
2022/10/07 04:23:24;;;;;;;2.77;1.37;;;;;;;20.23;64.06;101273.63;5073229;28;20179;-64
2022/10/07 04:25:50;;;;;;;2.43;1.10;;;;;;;20.21;64.23;101274.00;5043958;28;20425;-64
2022/10/07 04:28:23;;;;;;;2.50;1.20;;;;;;;20.21;63.98;101276.84;5054345;28;20591;-64
2022/10/07 04:30:50;;;;;;;2.27;1.17;;;;;;;20.22;64.07;101269.91;5036137;28;20202;-64
2022/10/07 04:33:16;;;;;;;2.03;1.37;;;;;;;20.22;64.26;101267.03;5054162;28;20774;-64
2022/10/07 04:35:43;;;;;;;2.80;1.33;;;;;;;20.22;64.18;101261.31;5074092;28;20401;-63
2022/10/07 04:38:11;;;;;;;4.87;1.23;;;;;;;20.23;63.96;101260.13;5074013;28;20413;-64
2022/10/07 04:40:38;;;;;;;2.53;1.20;;;;;;;20.22;63.87;101255.56;5074151;28;20409;-64
2022/10/07 04:43:19;;;;;;;3.63;1.40;;;;;;;20.22;64.23;101257.63;5056229;28;20435;-64
2022/10/07 04:45:45;;;;;;;2.83;1.30;;;;;;;20.23;64.38;101254.41;5073996;28;20877;-64
2022/10/07 04:48:11;;;;;;;3.50;1.40;;;;;;;20.21;63.81;101259.66;5056120;28;20498;-64
2022/10/07 04:50:39;;;;;;;2.33;1.10;;;;;;;20.26;63.78;101253.63;5073810;28;20457;-64
2022/10/07 04:53:06;;;;;;;1.70;0.90;;;;;;;20.23;63.98;101251.53;5055981;28;20230;-64
2022/10/07 04:55:42;;;;;;;3.40;1.50;;;;;;;20.24;64.03;101252.34;5039472;28;20409;-64
2022/10/07 04:58:07;;;;;;;2.33;1.00;;;;;;;20.23;64.42;101253.56;5073935;28;20915;-64
2022/10/07 05:00:33;;;;;;;3.13;1.20;;;;;;;20.23;63.93;101254.41;5073406;28;20437;-64
2022/10/07 05:02:58;;;;;;;2.53;1.20;;;;;;;20.22;64.23;101246.97;5055846;28;20189;-64
2022/10/07 05:05:27;;;;;;;1.80;0.90;;;;;;;20.22;64.13;101255.56;5055538;28;20667;-64
2022/10/07 05:07:53;;;;;;;2.80;1.30;;;;;;;20.24;64.31;101255.22;5073613;28;20171;-64
2022/10/07 05:10:19;;;;;;;2.27;1.10;;;;;;;20.24;64.14;101249.47;5073393;28;21020;-64
2022/10/07 05:12:44;;;;;;;3.00;1.10;;;;;;;20.24;64.04;101253.19;5072029;28;20679;-64
2022/10/07 05:15:10;;;;;;;2.10;1.17;;;;;;;20.23;63.96;101248.66;5073215;28;20202;-64
2022/10/07 05:17:36;;;;;;;2.33;1.07;;;;;;;20.25;64.05;101245.41;5072215;28;20222;-64
2022/10/07 05:20:03;;;;;;;5.00;1.30;;;;;;;20.24;64.15;101246.59;5055531;28;20175;-64
2022/10/07 05:22:30;;;;;;;2.27;1.00;;;;;;;20.25;64.01;101251.97;5055515;28;20633;-64
2022/10/07 05:24:55;;;;;;;3.00;1.17;;;;;;;20.25;64.01;101239.66;5055691;28;20459;-63
2022/10/07 05:27:21;;;;;;;1.83;1.03;;;;;;;20.23;64.00;101240.06;5073251;28;20927;-64
2022/10/07 05:29:46;;;;;;;2.10;0.90;;;;;;;20.25;64.09;101243.38;5088687;28;20179;-64
2022/10/07 05:32:12;;;;;;;2.70;1.03;;;;;;;20.24;64.12;101243.75;5072882;28;20206;-65
2022/10/07 05:34:37;;;;;;;2.20;1.00;;;;;;;20.25;63.92;101246.25;5072828;28;20237;-64
2022/10/07 05:37:03;;;;;;;2.20;1.17;;;;;;;20.25;64.09;101245.41;5073146;28;20183;-64
2022/10/07 05:39:29;;;;;;;2.37;1.10;;;;;;;20.25;64.05;101242.53;5073105;28;20229;-64
2022/10/07 05:41:54;;;;;;;3.63;1.10;;;;;;;20.24;64.21;101235.13;5072797;28;20163;-65
2022/10/07 05:44:20;;;;;;;2.70;1.27;;;;;;;20.26;64.01;101244.22;5072309;28;20175;-64
2022/10/07 05:46:45;;;;;;;1.80;1.00;;;;;;;20.25;63.92;101239.66;5055132;28;20789;-64
2022/10/07 05:49:11;;;;;;;1.80;1.00;;;;;;;20.24;64.16;101238.00;5053760;28;20572;-64
2022/10/07 05:51:36;;;;;;;2.50;1.30;;;;;;;20.25;63.89;101231.91;5070543;28;20657;-64
2022/10/07 05:54:02;;;;;;;2.00;1.10;;;;;;;20.27;63.81;101223.75;5070246;28;20705;-64
2022/10/07 05:56:27;;;;;;;2.00;1.00;;;;;;;20.26;63.99;101236.44;5072511;28;20329;-64
2022/10/07 05:58:54;;;;;;;2.60;0.93;;;;;;;20.26;63.94;101232.75;5072755;28;20606;-64
2022/10/07 06:01:21;;;;;;;2.07;1.17;;;;;;;20.25;64.06;101231.91;5054782;28;20591;-65
2022/10/07 06:03:50;;;;;;;1.90;1.10;;;;;;;20.26;64.20;101235.63;5072177;28;20448;-64
2022/10/07 06:06:16;;;;;;;3.23;1.33;;;;;;;20.26;64.06;101242.16;5071966;28;20440;-65
2022/10/07 06:08:41;;;;;;;2.07;1.00;;;;;;;20.23;64.42;101236.34;5057874;28;20426;-64
2022/10/07 06:13:53;;;;;;;2.37;1.13;;;;;;;20.27;64.06;101240.16;5056409;28;20186;-64
2022/10/07 06:16:19;;;;;;;2.53;1.23;;;;;;;20.25;63.79;101240.50;5053522;28;20480;-64
2022/10/07 06:18:45;;;;;;;1.90;1.00;;;;;;;20.24;64.01;101223.66;5054427;28;20678;-64
2022/10/07 06:21:11;;;;;;;2.23;1.07;;;;;;;20.26;63.99;101232.75;5036887;28;20563;-64
2022/10/07 06:23:36;;;;;;;2.53;1.23;;;;;;;20.24;63.85;101227.38;5070133;28;20425;-64
2022/10/07 06:26:03;;;;;;;2.13;1.10;;;;;;;20.25;64.08;101233.94;5056458;28;20531;-65
2022/10/07 06:28:36;;;;;;;2.57;1.10;;;;;;;20.27;64.08;101234.41;5052081;28;20168;-64
2022/10/07 06:31:06;;;;;;;3.40;1.00;;;;;;;20.26;64.02;101232.75;5071663;28;20468;-64
2022/10/07 06:33:31;;;;;;;3.40;1.07;;;;;;;20.27;63.89;101234.41;5054012;28;20420;-64
2022/10/07 06:35:56;;;;;;;1.80;1.00;;;;;;;20.23;63.87;101236.34;5071523;28;20410;-64
2022/10/07 06:38:22;;;;;;;2.60;1.30;;;;;;;20.26;63.70;101236.44;5038234;28;20285;-63
2022/10/07 06:41:00;;;;;;;3.27;1.30;;;;;;;20.24;64.23;101233.13;5051799;28;20602;-64
2022/10/07 06:43:26;;;;;;;2.47;0.93;;;;;;;20.24;64.44;101238.84;5033705;28;20171;-64
2022/10/07 06:45:54;;;;;;;1.90;1.10;;;;;;;20.24;64.05;101241.72;5049933;28;20433;-65
2022/10/07 06:48:20;;;;;;;2.03;1.10;;;;;;;20.25;64.28;101243.38;5050355;28;20533;-65
2022/10/07 06:50:52;;;;;;;2.40;1.10;;;;;;;20.26;64.23;101242.16;5051484;28;21127;-64
2022/10/07 06:53:17;;;;;;;2.83;1.10;;;;;;;20.25;64.06;101243.38;5051343;28;20227;-63
2022/10/07 06:55:43;;;;;;;2.83;0.97;;;;;;;20.27;64.13;101246.69;5051339;28;20927;-64
2022/10/07 06:58:08;;;;;;;2.63;1.43;;;;;;;20.27;64.25;101243.84;5049333;28;20709;-64
2022/10/07 07:00:34;;;;;;;2.00;1.10;;;;;;;20.29;63.84;101246.34;5044283;28;20179;-64
2022/10/07 07:03:02;;;;;;;1.60;0.80;;;;;;;20.28;63.87;101242.66;5058980;28;20187;-64
2022/10/07 07:05:34;;;;;;;2.20;1.00;;;;;;;20.26;64.28;101242.16;5053368;28;20183;-64
2022/10/07 07:07:59;;;;;;;1.73;0.90;;;;;;;20.28;63.92;101242.66;5040783;28;20788;-64
2022/10/07 07:10:25;;;;;;;3.00;1.37;;;;;;;20.28;64.06;101238.94;5037928;28;20465;-64
2022/10/07 07:12:53;;;;;;;1.70;0.80;;;;;;;20.26;64.03;101239.31;5065609;28;20179;-64
2022/10/07 07:15:19;;;;;;;2.70;1.00;;;;;;;20.27;63.94;101245.88;5062826;28;20195;-64
2022/10/07 07:17:44;;;;;;;1.87;0.93;;;;;;;20.27;63.81;101246.69;5059454;28;20505;-64
2022/10/07 07:20:10;;;;;;;4.00;1.10;;;;;;;20.28;63.67;101239.78;5053304;28;20198;-63
2022/10/07 07:22:36;;;;;;;2.57;1.20;;;;;;;20.30;64.24;101239.38;5036345;28;20964;-64
2022/10/07 07:25:02;;;;;;;2.63;1.40;;;;;;;20.29;63.88;101240.59;5055803;28;20229;-64
2022/10/07 07:27:27;;;;;;;2.13;1.17;;;;;;;20.29;64.71;101244.31;5038018;28;20422;-64
2022/10/07 07:29:53;;;;;;;2.07;1.00;;;;;;;20.28;64.26;101241.81;5056020;28;20207;-64
2022/10/07 07:32:18;;;;;;;2.73;1.50;;;;;;;20.28;64.29;101241.81;5056915;28;20212;-64
2022/10/07 07:34:44;;;;;;;1.60;0.77;;;;;;;20.29;63.91;101244.31;5056195;28;20190;-64
2022/10/07 07:37:10;;;;;;;2.87;1.00;;;;;;;20.30;63.70;101250.88;5042536;28;20220;-65
2022/10/07 07:39:35;;;;;;;1.80;1.00;;;;;;;20.30;63.65;101245.97;5021726;28;20603;-64
2022/10/07 07:42:00;;;;;;;1.90;1.03;;;;;;;20.31;63.58;101247.63;5051935;28;20179;-64
2022/10/07 07:44:28;;;;;;;2.83;1.40;;;;;;;20.29;63.70;101250.06;5058134;28;20578;-64
2022/10/07 07:46:54;;;;;;;1.97;0.90;;;;;;;20.30;63.96;101245.97;5042696;28;20205;-65
2022/10/07 07:49:20;;;;;;;3.63;0.90;;;;;;;20.31;63.64;101241.91;5057360;28;20449;-64
2022/10/07 07:51:45;;;;;;;2.53;1.00;;;;;;;20.30;63.72;101245.97;5051311;28;20203;-65
2022/10/07 07:54:11;;;;;;;2.33;1.00;;;;;;;20.30;64.04;101245.97;5057771;28;20231;-64
2022/10/07 07:56:36;;;;;;;2.10;1.00;;;;;;;20.30;64.22;101245.97;5058820;28;20198;-64
2022/10/07 07:59:02;;;;;;;1.80;0.90;;;;;;;20.33;63.78;101244.41;5056833;28;20187;-65
2022/10/07 08:01:30;;;;;;;2.23;1.10;;;;;;;20.32;63.96;101240.69;5060973;28;20534;-63
2022/10/07 08:03:56;;;;;;;2.00;0.90;;;;;;;20.31;64.10;101246.81;5064169;28;20182;-65
2022/10/07 08:06:21;;;;;;;1.90;0.90;;;;;;;20.31;63.82;101247.63;5061273;28;20459;-64
2022/10/07 08:08:47;;;;;;;2.30;0.83;;;;;;;20.31;63.59;101250.50;5059014;28;20225;-63
2022/10/07 08:11:17;;;;;;;2.17;0.90;;;;;;;20.31;63.72;101249.69;5045784;28;20210;-64
2022/10/07 08:13:43;;;;;;;2.63;1.30;;;;;;;20.30;63.86;101245.13;5057923;28;20267;-64
2022/10/07 08:16:14;;;;;;;1.93;0.90;;;;;;;20.32;63.92;101243.56;5046205;28;20521;-65
2022/10/07 08:18:40;;;;;;;2.00;1.00;;;;;;;20.34;63.93;101249.78;5054200;28;20187;-64
2022/10/07 08:21:09;;;;;;;2.57;1.30;;;;;;;20.33;63.98;101238.66;5046621;28;20460;-64
2022/10/07 08:23:35;;;;;;;2.00;0.93;;;;;;;20.32;63.63;101240.69;5041465;28;20518;-64
2022/10/07 08:26:02;;;;;;;2.40;1.27;;;;;;;20.33;64.38;101236.63;5054067;28;20433;-64
2022/10/07 08:28:27;;;;;;;2.10;1.13;;;;;;;20.32;63.74;101232.09;5042363;28;20472;-65
2022/10/07 08:30:53;;;;;;;2.50;1.17;;;;;;;20.32;63.95;101232.09;5060002;28;20465;-64
2022/10/07 08:33:19;;;;;;;1.93;0.90;;;;;;;20.34;63.77;101232.56;5071106;28;20186;-64
2022/10/07 08:35:49;;;;;;;2.10;0.93;;;;;;;20.34;63.86;101229.69;5055387;28;20512;-65
2022/10/07 08:38:15;;;;;;;2.83;1.03;;;;;;;20.34;63.64;101229.69;5054993;28;20509;-64
2022/10/07 08:40:50;;;;;;;1.77;0.90;;;;;;;20.35;63.64;101230.50;5054920;28;20421;-65
2022/10/07 08:43:16;;;;;;;1.77;0.93;;;;;;;20.35;64.13;101227.63;5038951;28;20185;-64
2022/10/07 08:45:41;;;;;;;1.90;0.90;;;;;;;20.34;63.80;101221.09;5039604;28;20414;-65
2022/10/07 08:48:11;;;;;;;1.77;0.83;;;;;;;20.34;63.58;101223.13;5055181;28;20281;-64
2022/10/07 08:50:55;;;;;;;1.97;1.00;;;;;;;20.34;63.66;101215.34;5055068;28;20207;-64
2022/10/07 08:53:26;;;;;;;2.30;1.10;;;;;;;20.36;64.16;101209.25;5040290;28;20864;-65
2022/10/07 08:55:54;;;;;;;2.60;1.00;;;;;;;20.37;63.55;101208.03;5050931;28;20541;-64
2022/10/07 08:58:47;;;;;;;2.43;1.20;;;;;;;20.34;63.60;101206.75;5037834;28;20429;-64
2022/10/07 09:01:31;;;;;;;2.37;1.20;;;;;;;20.38;63.75;101206.84;5057276;28;20444;-64
2022/10/07 09:04:03;;;;;;;2.13;0.77;;;;;;;20.35;63.64;101196.09;5055057;28;20944;-64
2022/10/07 09:06:51;;;;;;;2.23;1.13;;;;;;;20.33;63.80;101195.66;5056800;28;20501;-64
2022/10/07 09:09:50;;;;;;;2.30;1.00;;;;;;;20.35;63.99;101191.19;5041409;28;20417;-65
2022/10/07 09:12:20;;;;;;;1.70;0.90;;;;;;;20.35;63.61;101184.63;5021976;28;20476;-65
2022/10/07 09:14:46;;;;;;;2.00;1.07;;;;;;;20.36;63.89;101180.56;5038492;28;20421;-64
2022/10/07 09:17:13;;;;;;;3.70;1.30;;;;;;;20.37;63.65;101187.97;5053535;28;20437;-64
2022/10/07 09:19:41;;;;;;;1.77;1.07;;;;;;;20.38;63.37;101183.88;5035456;28;20182;-64
2022/10/07 09:22:20;;;;;;;1.70;0.90;;;;;;;20.37;63.81;101171.56;5070338;28;20855;-64
2022/10/07 09:24:46;;;;;;;3.20;1.20;;;;;;;20.36;63.91;101169.91;5058335;28;20530;-64
2022/10/07 09:27:13;;;;;;;2.10;1.00;;;;;;;20.37;63.48;101165.84;5037448;28;20730;-64
2022/10/07 09:29:38;;;;;;;1.97;1.07;;;;;;;20.37;63.42;101162.16;5041198;28;20426;-64
2022/10/07 09:32:04;;;;;;;2.20;1.10;;;;;;;20.39;63.54;101169.19;5047414;28;20466;-64
2022/10/07 09:34:29;;;;;;;2.60;1.33;;;;;;;20.38;63.50;101160.94;5054242;28;20249;-64
2022/10/07 09:37:10;;;;;;;2.57;1.13;;;;;;;20.40;63.45;101161.38;5059029;28;20207;-64
2022/10/07 09:39:36;;;;;;;2.17;1.10;;;;;;;20.40;63.84;101170.84;5057308;28;20175;-64
2022/10/07 09:42:02;;;;;;;1.90;0.90;;;;;;;20.39;63.42;101162.59;5053310;28;20517;-65
2022/10/07 09:44:28;;;;;;;2.67;1.00;;;;;;;20.38;63.71;101161.78;5069548;28;20179;-65
2022/10/07 09:46:56;;;;;;;2.07;0.77;;;;;;;20.39;63.62;101156.88;5054901;28;20425;-64
2022/10/07 09:49:27;;;;;;;2.50;0.93;;;;;;;20.41;63.75;101152.41;5069141;28;20203;-64
2022/10/07 09:52:01;;;;;;;2.33;1.47;;;;;;;20.41;63.36;101154.47;5058932;28;20477;-64
2022/10/07 09:54:27;;;;;;;2.93;1.20;;;;;;;20.39;63.81;101151.13;5054764;28;20434;-65
2022/10/07 09:56:56;;;;;;;2.00;1.03;;;;;;;20.39;63.75;101149.09;5054367;28;20486;-66
2022/10/07 09:59:28;;;;;;;2.67;1.10;;;;;;;20.40;63.95;101150.75;5070892;28;20268;-64
2022/10/07 10:01:55;;;;;;;1.77;0.93;;;;;;;20.42;63.17;101145.47;5053768;28;20449;-65
2022/10/07 10:04:30;;;;;;;1.73;0.90;;;;;;;20.42;63.42;101139.72;5037549;28;20905;-64
2022/10/07 10:06:59;;;;;;;2.10;1.00;;;;;;;20.41;63.72;101140.94;5024531;28;20447;-65
2022/10/07 10:09:25;;;;;;;2.20;1.20;;;;;;;20.41;63.67;101131.53;5068166;28;20425;-65
2022/10/07 10:12:09;;;;;;;2.37;1.10;;;;;;;20.44;63.60;101133.63;5057503;28;20492;-65
2022/10/07 10:14:42;;;;;;;1.57;0.90;;;;;;;20.43;63.84;101124.22;5054340;28;20568;-65
2022/10/07 10:17:20;;;;;;;2.10;1.10;;;;;;;20.43;63.80;101118.47;5038313;28;20983;-65
2022/10/07 10:19:45;;;;;;;2.20;1.07;;;;;;;20.43;63.54;101127.06;5052465;28;20434;-64
2022/10/07 10:22:25;;;;;;;2.07;1.00;;;;;;;20.45;63.38;101112.34;5052323;28;20916;-65
2022/10/07 10:28:01;;;;;;;2.03;0.90;;;;;;;20.43;63.52;101101.25;5052164;28;20412;-65
2022/10/07 10:30:27;;;;;;;2.43;1.20;;;;;;;20.44;63.96;101093.47;5024877;28;20483;-64
2022/10/07 10:33:09;;;;;;;1.80;0.90;;;;;;;20.44;63.19;101091.44;5034420;28;20821;-64
2022/10/07 10:35:54;;;;;;;2.30;1.03;;;;;;;20.44;63.47;101091.44;5051297;28;20187;-65
2022/10/07 10:38:25;;;;;;;1.63;0.80;;;;;;;20.45;63.69;101084.50;5072293;28;20504;-64
2022/10/07 10:41:26;;;;;;;2.60;1.00;;;;;;;20.44;63.58;101091.44;5054414;28;20430;-64
2022/10/07 10:44:09;;;;;;;1.50;0.77;;;;;;;20.50;63.51;101084.19;5046417;28;20924;-65
2022/10/07 10:46:38;;;;;;;1.80;0.80;;;;;;;20.47;63.71;101084.13;5053381;28;20492;-65
2022/10/07 10:49:28;;;;;;;1.97;0.83;;;;;;;20.45;63.24;101080.78;5052753;28;20492;-64
2022/10/07 10:52:01;;;;;;;1.70;1.00;;;;;;;20.46;63.48;101074.69;5057458;28;20442;-65
2022/10/07 10:54:30;;;;;;;2.03;1.00;;;;;;;20.46;63.25;101071.00;5011831;28;20428;-65
2022/10/07 10:57:10;;;;;;;1.97;1.00;;;;;;;20.46;63.58;101068.94;5014622;28;20427;-64
2022/10/07 11:00:09;;;;;;;1.47;0.80;;;;;;;20.48;63.29;101063.69;5013505;28;20455;-64
2022/10/07 11:02:43;;;;;;;1.80;0.90;;;;;;;20.46;63.52;101051.72;5013846;28;20419;-65
2022/10/07 11:05:23;;;;;;;1.87;1.00;;;;;;;20.48;63.63;101049.34;5014140;28;20443;-64
2022/10/07 11:08:00;;;;;;;2.27;1.00;;;;;;;20.48;63.60;101039.88;5010434;28;20447;-66
2022/10/07 11:10:43;;;;;;;2.43;0.93;;;;;;;20.50;63.31;101046.06;5014567;28;20439;-64
2022/10/07 11:13:27;;;;;;;1.47;0.80;;;;;;;20.51;63.49;101045.69;5017343;28;20840;-65
2022/10/07 11:15:59;;;;;;;2.00;1.00;;;;;;;20.48;63.57;101039.88;5014136;28;20403;-65
2022/10/07 11:18:36;;;;;;;2.17;0.90;;;;;;;20.52;63.56;101035.88;5017639;28;20538;-64
2022/10/07 11:21:03;;;;;;;1.60;0.70;;;;;;;20.51;63.18;101027.63;5012191;28;20503;-64
2022/10/07 11:23:52;;;;;;;1.90;0.90;;;;;;;20.52;63.38;101029.34;5010693;28;20907;-65
2022/10/07 11:26:42;;;;;;;1.67;0.83;;;;;;;20.51;63.38;101021.91;5011130;28;20395;-65
2022/10/07 11:29:34;;;;;;;1.73;0.80;;;;;;;20.53;63.28;101013.78;4982687;28;20481;-64
2022/10/07 11:32:42;;;;;;;2.70;0.90;;;;;;;20.52;63.19;101012.94;5017353;28;20549;-65
2022/10/07 11:35:28;;;;;;;1.40;0.67;;;;;;;20.53;63.22;101005.16;4977529;28;20465;-65
2022/10/07 11:38:08;;;;;;;2.93;1.10;;;;;;;20.56;62.97;100995.78;5015599;28;20807;-64
2022/10/07 11:40:34;;;;;;;1.70;0.90;;;;;;;20.55;62.95;101000.72;5015311;28;20415;-65
2022/10/07 11:43:07;;;;;;;1.70;0.90;;;;;;;20.55;63.26;100989.25;5012523;28;20424;-65